createdAt,value
2022-12-25T00:01:18.322Z,6.63
2022-12-25T00:03:45.564Z,6.61
2022-12-25T00:06:12.354Z,6.51
2022-12-25T00:08:40.155Z,6.14
2022-12-25T00:11:13.551Z,5.91
2022-12-25T00:13:40.186Z,6.40
2022-12-25T00:16:18.778Z,5.24
2022-12-25T00:18:46.438Z,6.06
2022-12-25T00:21:13.970Z,5.97
2022-12-25T00:23:40.855Z,6.17
2022-12-25T00:26:10.997Z,5.88
2022-12-25T00:28:37.562Z,5.76
2022-12-25T00:31:09.007Z,6.03
2022-12-25T00:33:39.852Z,5.93
2022-12-25T00:36:07.728Z,5.87
2022-12-25T00:38:36.348Z,5.78
2022-12-25T00:41:08.502Z,5.75
2022-12-25T00:43:35.116Z,5.76
2022-12-25T00:46:03.861Z,5.32
2022-12-25T00:48:31.473Z,5.59
2022-12-25T00:51:01.764Z,5.77
2022-12-25T00:53:29.320Z,5.62
2022-12-25T00:56:01.070Z,5.47
2022-12-25T00:58:29.926Z,5.41
2022-12-25T01:00:57.283Z,5.33
2022-12-25T01:03:24.569Z,5.30
2022-12-25T01:06:11.040Z,5.43
2022-12-25T01:08:59.737Z,5.29
2022-12-25T01:11:26.685Z,5.38
2022-12-25T01:13:53.294Z,4.68
2022-12-25T01:16:19.902Z,5.41
2022-12-25T01:18:46.800Z,5.51
2022-12-25T01:21:18.154Z,5.54
2022-12-25T01:23:45.099Z,5.50
2022-12-25T01:26:14.197Z,5.46
2022-12-25T01:28:41.291Z,5.58
2022-12-25T01:31:13.587Z,5.63
2022-12-25T01:33:42.269Z,6.03
2022-12-25T01:36:24.000Z,6.36
2022-12-25T01:38:52.047Z,5.22
2022-12-25T01:41:21.441Z,5.87
2022-12-25T01:44:06.292Z,6.12
2022-12-25T01:46:33.253Z,5.43
2022-12-25T01:49:08.336Z,5.34
2022-12-25T01:51:34.917Z,5.92
2022-12-25T01:54:05.988Z,5.94
2022-12-25T01:56:35.225Z,5.91
2022-12-25T01:59:02.914Z,5.93
2022-12-25T02:01:29.725Z,5.88
2022-12-25T02:04:06.720Z,5.90
2022-12-25T02:06:35.240Z,5.93
2022-12-25T02:09:02.001Z,6.00
2022-12-25T02:11:47.064Z,6.02
2022-12-25T02:14:13.728Z,5.40
2022-12-25T02:16:58.017Z,5.77
2022-12-25T02:19:43.792Z,5.69
2022-12-25T02:22:10.392Z,4.26
2022-12-25T02:24:39.609Z,5.68
2022-12-25T02:27:26.449Z,5.70
2022-12-25T02:30:07.140Z,5.67
2022-12-25T02:33:17.001Z,5.42
2022-12-25T02:35:50.946Z,5.60
2022-12-25T02:38:31.220Z,5.38
2022-12-25T02:41:02.221Z,5.58
2022-12-25T02:43:52.804Z,5.73
2022-12-25T02:46:41.915Z,5.12
2022-12-25T02:49:38.254Z,5.58
2022-12-25T02:52:37.720Z,5.59
2022-12-25T02:55:30.756Z,5.69
2022-12-25T02:58:21.278Z,5.53
2022-12-25T03:01:09.130Z,5.47
2022-12-25T03:03:59.206Z,4.72
2022-12-25T03:06:44.280Z,4.39
2022-12-25T03:09:38.773Z,4.86
2022-12-25T03:12:37.586Z,4.90
2022-12-25T03:15:25.456Z,4.82
2022-12-25T03:17:52.681Z,4.96
2022-12-25T03:20:37.688Z,5.02
2022-12-25T03:23:22.908Z,4.47
2022-12-25T03:26:08.045Z,4.93
2022-12-25T03:28:34.649Z,4.83
2022-12-25T03:31:13.471Z,4.87
2022-12-25T03:34:40.246Z,4.97
2022-12-25T03:37:18.704Z,4.99
2022-12-25T03:39:56.578Z,4.83
2022-12-25T03:42:47.173Z,4.86
2022-12-25T03:45:50.475Z,4.75
2022-12-25T03:48:36.652Z,4.45
2022-12-25T03:51:28.661Z,4.22
2022-12-25T03:54:19.550Z,4.66
2022-12-25T03:57:05.110Z,4.63
2022-12-25T03:59:50.322Z,4.13
2022-12-25T04:02:35.637Z,4.58
2022-12-25T04:05:20.874Z,4.68
2022-12-25T04:08:05.910Z,4.64
2022-12-25T04:10:51.277Z,4.79
2022-12-25T04:13:36.395Z,4.55
2022-12-25T04:16:21.748Z,4.87
2022-12-25T04:19:07.022Z,4.60
2022-12-25T04:21:52.528Z,4.89
2022-12-25T04:24:51.355Z,4.73
2022-12-25T04:27:36.285Z,4.78
2022-12-25T04:30:21.517Z,4.89
2022-12-25T04:33:06.758Z,4.93
2022-12-25T04:35:51.855Z,5.12
2022-12-25T04:38:20.953Z,5.04
2022-12-25T04:40:47.621Z,3.08
2022-12-25T04:43:14.229Z,5.39
2022-12-25T04:45:40.762Z,5.14
2022-12-25T04:48:07.384Z,4.63
2022-12-25T04:50:33.992Z,5.45
2022-12-25T04:53:00.694Z,5.51
2022-12-25T04:55:27.329Z,4.88
2022-12-25T04:57:53.948Z,5.61
2022-12-25T05:00:20.572Z,4.97
2022-12-25T05:02:47.289Z,5.67
2022-12-25T05:05:14.057Z,5.71
2022-12-25T05:07:40.596Z,5.79
2022-12-25T05:10:07.703Z,5.65
2022-12-25T05:12:34.247Z,5.76
2022-12-25T05:15:00.901Z,5.59
2022-12-25T05:17:27.594Z,5.62
2022-12-25T05:19:54.189Z,5.44
2022-12-25T05:22:20.790Z,5.44
2022-12-25T05:24:47.394Z,5.36
2022-12-25T05:27:15.034Z,4.98
2022-12-25T05:29:41.625Z,5.25
2022-12-25T05:32:08.299Z,5.22
2022-12-25T05:34:34.898Z,5.40
2022-12-25T05:37:01.481Z,5.48
2022-12-25T05:39:28.113Z,5.32
2022-12-25T05:41:54.748Z,5.27
2022-12-25T05:44:21.809Z,5.40
2022-12-25T05:46:48.567Z,4.78
2022-12-25T05:49:15.311Z,4.86
2022-12-25T05:51:41.901Z,5.38
2022-12-25T05:54:08.474Z,5.62
2022-12-25T05:56:37.366Z,5.75
2022-12-25T05:59:03.975Z,6.58
2022-12-25T06:01:30.782Z,6.84
2022-12-25T06:03:57.794Z,7.31
2022-12-25T06:06:24.679Z,7.39
2022-12-25T06:08:55.095Z,7.84
2022-12-25T06:11:22.191Z,8.11
2022-12-25T06:13:52.672Z,8.20
2022-12-25T06:16:20.094Z,8.36
2022-12-25T06:18:50.365Z,8.69
2022-12-25T06:21:17.005Z,8.89
2022-12-25T06:23:44.151Z,9.07
2022-12-25T06:26:14.280Z,9.21
2022-12-25T06:28:41.407Z,9.31
2022-12-25T06:31:13.561Z,9.44
2022-12-25T06:33:40.280Z,9.09
2022-12-25T06:36:11.279Z,9.73
2022-12-25T06:38:38.340Z,9.70
2022-12-25T06:41:13.368Z,9.09
2022-12-25T06:43:39.980Z,9.82
2022-12-25T06:46:09.931Z,9.81
2022-12-25T06:48:38.440Z,9.68
2022-12-25T06:51:06.061Z,9.91
2022-12-25T06:53:39.801Z,9.89
2022-12-25T06:56:10.104Z,9.84
2022-12-25T06:58:36.786Z,9.93
2022-12-25T07:01:15.256Z,9.88
2022-12-25T07:03:45.328Z,9.91
2022-12-25T07:06:11.950Z,9.90
2022-12-25T07:08:38.936Z,9.96
2022-12-25T07:11:06.863Z,9.99
2022-12-25T07:13:33.730Z,10.01
2022-12-25T07:16:02.375Z,9.85
2022-12-25T07:18:29.777Z,10.03
2022-12-25T07:20:56.391Z,10.26
2022-12-25T07:23:23.246Z,10.27
2022-12-25T07:26:00.054Z,10.31
2022-12-25T07:28:27.580Z,9.50
2022-12-25T07:30:54.262Z,9.82
2022-12-25T07:33:21.293Z,10.45
2022-12-25T07:35:48.037Z,10.40
2022-12-25T07:38:14.683Z,10.49
2022-12-25T07:40:41.318Z,10.47
2022-12-25T07:43:07.898Z,10.57
2022-12-25T07:45:34.528Z,10.62
2022-12-25T07:48:05.314Z,11.13
2022-12-25T07:50:33.240Z,11.39
2022-12-25T07:52:59.822Z,11.59
2022-12-25T07:55:26.404Z,11.74
2022-12-25T07:57:53.093Z,11.89
2022-12-25T08:00:19.936Z,11.14
2022-12-25T08:02:50.171Z,11.79
2022-12-25T08:05:17.092Z,12.11
2022-12-25T08:07:43.742Z,12.23
2022-12-25T08:10:10.729Z,12.34
2022-12-25T08:12:37.299Z,12.44
2022-12-25T08:15:04.186Z,12.52
2022-12-25T08:17:30.814Z,12.42
2022-12-25T08:19:57.434Z,12.63
2022-12-25T08:22:23.999Z,12.66
2022-12-25T08:24:50.599Z,12.33
2022-12-25T08:27:17.251Z,12.70
2022-12-25T08:29:44.940Z,12.28
2022-12-25T08:32:11.542Z,12.76
2022-12-25T08:34:38.702Z,12.84
2022-12-25T08:37:05.365Z,13.00
2022-12-25T08:39:32.269Z,13.11
2022-12-25T08:41:58.994Z,13.18
2022-12-25T08:44:25.574Z,13.17
2022-12-25T08:46:52.220Z,12.81
2022-12-25T08:49:19.511Z,13.05
2022-12-25T08:51:46.413Z,13.31
2022-12-25T08:54:13.083Z,13.23
2022-12-25T08:56:39.859Z,13.02
2022-12-25T08:59:06.547Z,13.10
2022-12-25T09:01:33.189Z,12.77
2022-12-25T09:03:59.931Z,13.14
2022-12-25T09:06:26.578Z,13.15
2022-12-25T09:08:53.271Z,13.09
2022-12-25T09:11:20.653Z,12.39
2022-12-25T09:13:48.501Z,12.72
2022-12-25T09:16:18.642Z,12.96
2022-12-25T09:18:45.368Z,13.18
2022-12-25T09:21:14.691Z,13.16
2022-12-25T09:23:42.256Z,13.05
2022-12-25T09:26:12.784Z,13.38
2022-12-25T09:28:40.817Z,13.35
2022-12-25T09:31:09.233Z,13.48
2022-12-25T09:33:35.947Z,13.31
2022-12-25T09:36:06.344Z,13.46
2022-12-25T09:38:34.223Z,13.58
2022-12-25T09:41:20.931Z,13.51
2022-12-25T09:44:02.803Z,13.39
2022-12-25T09:46:41.886Z,13.46
2022-12-25T09:49:34.470Z,13.40
2022-12-25T09:52:10.507Z,13.47
2022-12-25T09:54:50.273Z,13.56
2022-12-25T09:57:17.043Z,13.67
2022-12-25T09:59:45.103Z,13.65
2022-12-25T10:02:47.004Z,13.72
2022-12-25T10:05:25.649Z,13.61
2022-12-25T10:07:58.115Z,13.74
2022-12-25T10:10:39.908Z,13.85
2022-12-25T10:13:16.157Z,13.83
2022-12-25T10:16:10.062Z,13.45
2022-12-25T10:19:02.817Z,14.01
2022-12-25T10:21:29.594Z,13.95
2022-12-25T10:24:10.434Z,13.66
2022-12-25T10:26:37.016Z,13.93
2022-12-25T10:29:15.022Z,13.67
2022-12-25T10:31:45.933Z,13.97
2022-12-25T10:34:14.667Z,13.79
2022-12-25T10:36:43.773Z,13.34
2022-12-25T10:39:21.275Z,13.86
2022-12-25T10:42:06.423Z,13.95
2022-12-25T10:44:34.541Z,14.02
2022-12-25T10:47:02.897Z,13.73
2022-12-25T10:49:37.877Z,14.12
2022-12-25T10:52:21.574Z,13.90
2022-12-25T10:54:48.218Z,14.33
2022-12-25T10:57:17.945Z,14.46
2022-12-25T10:59:47.094Z,14.59
2022-12-25T11:02:27.686Z,14.80
2022-12-25T11:05:04.670Z,14.94
2022-12-25T11:07:32.669Z,14.70
2022-12-25T11:10:05.651Z,14.97
2022-12-25T11:12:35.438Z,15.06
2022-12-25T11:15:26.914Z,15.09
2022-12-25T11:17:53.585Z,15.03
2022-12-25T11:20:20.722Z,14.96
2022-12-25T11:22:49.773Z,14.82
2022-12-25T11:25:25.514Z,14.86
2022-12-25T11:28:04.525Z,14.79
2022-12-25T11:30:33.421Z,14.78
2022-12-25T11:33:05.844Z,14.63
2022-12-25T11:35:43.332Z,14.21
2022-12-25T11:38:09.941Z,14.57
2022-12-25T11:40:54.774Z,14.62
2022-12-25T11:43:35.674Z,14.69
2022-12-25T11:46:23.723Z,14.80
2022-12-25T11:48:56.388Z,14.76
2022-12-25T11:51:32.093Z,14.65
2022-12-25T11:54:07.992Z,14.58
2022-12-25T11:56:34.556Z,14.53
2022-12-25T11:59:09.841Z,14.04
2022-12-25T12:01:45.170Z,14.60
2022-12-25T12:04:32.697Z,14.51
2022-12-25T12:07:13.428Z,14.57
2022-12-25T12:09:50.367Z,14.82
2022-12-25T12:12:35.286Z,14.22
2022-12-25T12:15:07.759Z,14.21
2022-12-25T12:17:34.648Z,14.48
2022-12-25T12:20:26.833Z,14.53
2022-12-25T12:22:53.716Z,14.39
2022-12-25T12:25:21.519Z,14.20
2022-12-25T12:27:58.444Z,14.07
2022-12-25T12:30:35.418Z,14.25
2022-12-25T12:33:07.333Z,13.64
2022-12-25T12:35:37.310Z,13.98
2022-12-25T12:38:20.364Z,14.26
2022-12-25T12:41:00.650Z,13.92
2022-12-25T12:43:43.355Z,13.97
2022-12-25T12:46:31.413Z,14.16
2022-12-25T12:49:22.162Z,14.04
2022-12-25T12:51:49.350Z,13.92
2022-12-25T12:54:25.228Z,13.81
2022-12-25T12:57:06.141Z,13.79
2022-12-25T12:59:46.897Z,13.67
2022-12-25T13:02:41.014Z,13.70
2022-12-25T13:05:38.526Z,13.75
2022-12-25T13:08:10.827Z,13.67
2022-12-25T13:10:41.345Z,13.46
2022-12-25T13:13:33.940Z,13.53
2022-12-25T13:16:00.599Z,13.56
2022-12-25T13:18:27.407Z,13.44
2022-12-25T13:21:01.008Z,13.44
2022-12-25T13:23:28.977Z,13.47
2022-12-25T13:25:58.282Z,10.84
2022-12-25T13:28:30.328Z,13.24
2022-12-25T13:31:15.668Z,13.43
2022-12-25T13:33:48.171Z,13.05
2022-12-25T13:36:15.380Z,13.08
2022-12-25T13:38:51.336Z,13.34
2022-12-25T13:41:43.869Z,13.26
2022-12-25T13:44:28.723Z,13.42
2022-12-25T13:46:55.463Z,13.46
2022-12-25T13:49:24.048Z,13.28
2022-12-25T13:51:51.488Z,13.21
2022-12-25T13:54:19.341Z,13.25
2022-12-25T13:56:54.756Z,13.24
2022-12-25T13:59:24.871Z,13.30
2022-12-25T14:01:54.010Z,13.11
2022-12-25T14:04:23.927Z,13.15
2022-12-25T14:06:52.603Z,12.82
2022-12-25T14:09:20.401Z,12.92
2022-12-25T14:11:52.107Z,12.87
2022-12-25T14:14:26.089Z,12.83
2022-12-25T14:16:56.285Z,12.89
2022-12-25T14:19:28.969Z,12.78
2022-12-25T14:22:10.859Z,12.38
2022-12-25T14:24:40.128Z,12.49
2022-12-25T14:27:20.046Z,12.39
2022-12-25T14:29:49.188Z,12.38
2022-12-25T14:32:19.660Z,12.17
2022-12-25T14:34:49.445Z,11.79
2022-12-25T14:37:20.029Z,11.98
2022-12-25T14:40:05.209Z,11.84
2022-12-25T14:42:37.538Z,11.69
2022-12-25T14:45:07.524Z,11.62
2022-12-25T14:47:50.907Z,11.06
2022-12-25T14:50:28.868Z,11.26
2022-12-25T14:52:56.338Z,11.37
2022-12-25T14:55:26.754Z,11.23
2022-12-25T14:58:01.956Z,11.28
2022-12-25T15:00:38.001Z,11.20
2022-12-25T15:03:08.217Z,11.44
2022-12-25T15:05:38.222Z,11.16
2022-12-25T15:08:13.707Z,11.30
2022-12-25T15:13:28.880Z,11.08
2022-12-25T15:16:01.560Z,10.97
2022-12-25T15:18:33.357Z,10.45
2022-12-25T15:21:00.220Z,10.71
2022-12-25T15:23:26.853Z,10.54
2022-12-25T15:25:53.560Z,10.40
2022-12-25T15:28:20.830Z,10.17
2022-12-25T15:30:49.742Z,9.57
2022-12-25T15:33:18.653Z,9.59
2022-12-25T15:35:45.794Z,9.57
2022-12-25T15:38:13.636Z,8.69
2022-12-25T15:40:41.410Z,9.25
2022-12-25T15:43:38.847Z,8.99
2022-12-25T15:45:58.824Z,8.97
2022-12-25T15:48:25.437Z,8.76
2022-12-25T15:50:52.039Z,8.98
2022-12-25T15:53:18.560Z,8.94
2022-12-25T15:55:45.134Z,8.68
2022-12-25T15:58:13.156Z,8.75
2022-12-25T16:00:39.764Z,8.73
2022-12-25T16:03:06.517Z,8.63
2022-12-25T16:05:33.243Z,7.79
2022-12-25T16:07:59.927Z,8.48
2022-12-25T16:10:26.588Z,7.97
2022-12-25T16:12:53.195Z,8.48
2022-12-25T16:15:19.834Z,7.94
2022-12-25T16:17:46.467Z,7.86
2022-12-25T16:20:13.509Z,7.77
2022-12-25T16:22:40.270Z,8.03
2022-12-25T16:25:15.012Z,7.79
2022-12-25T16:27:41.620Z,7.69
2022-12-25T16:30:09.614Z,7.41
2022-12-25T16:32:36.241Z,7.45
2022-12-25T16:35:03.047Z,7.51
2022-12-25T16:37:29.757Z,7.34
2022-12-25T16:39:56.320Z,7.31
2022-12-25T16:42:22.962Z,7.31
2022-12-25T16:44:50.018Z,7.24
2022-12-25T16:47:16.702Z,7.16
2022-12-25T16:49:43.355Z,7.19
2022-12-25T16:52:10.049Z,6.85
2022-12-25T16:54:36.639Z,7.09
2022-12-25T16:57:03.415Z,7.04
2022-12-25T16:59:30.526Z,6.97
2022-12-25T17:01:57.254Z,6.88
2022-12-25T17:04:24.031Z,7.01
2022-12-25T17:06:50.634Z,7.03
2022-12-25T17:09:17.217Z,6.98
2022-12-25T17:11:43.800Z,6.80
2022-12-25T17:14:10.681Z,6.81
2022-12-25T17:16:38.515Z,6.76
2022-12-25T17:19:09.747Z,6.73
2022-12-25T17:21:38.227Z,6.50
2022-12-25T17:24:05.831Z,6.10
2022-12-25T17:26:33.554Z,6.29
2022-12-25T17:29:00.348Z,6.01
2022-12-25T17:31:27.091Z,5.59
2022-12-25T17:33:54.387Z,6.19
2022-12-25T17:36:22.213Z,6.03
2022-12-25T17:38:49.060Z,5.82
2022-12-25T17:41:17.512Z,5.58
2022-12-25T17:43:45.724Z,5.68
2022-12-25T17:46:24.785Z,5.73
2022-12-25T17:48:53.071Z,5.66
2022-12-25T17:51:22.908Z,5.50
2022-12-25T17:53:52.334Z,5.64
2022-12-25T17:56:20.277Z,5.22
2022-12-25T17:58:55.341Z,4.87
2022-12-25T18:01:23.748Z,5.64
2022-12-25T18:03:51.143Z,5.33
2022-12-25T18:06:20.693Z,5.52
2022-12-25T18:08:47.635Z,5.40
2022-12-25T18:11:16.722Z,5.31
2022-12-25T18:13:50.005Z,4.90
2022-12-25T18:16:17.470Z,5.08
2022-12-25T18:18:51.424Z,5.03
2022-12-25T18:21:18.788Z,5.11
2022-12-25T18:23:46.300Z,5.19
2022-12-25T18:26:13.285Z,4.76
2022-12-25T18:28:42.473Z,5.16
2022-12-25T18:31:14.900Z,4.64
2022-12-25T18:33:43.958Z,4.75
2022-12-25T18:36:13.337Z,4.98
2022-12-25T18:38:39.955Z,4.96
2022-12-25T18:41:08.332Z,5.01
2022-12-25T18:43:53.693Z,4.79
2022-12-25T18:46:24.420Z,4.87
2022-12-25T18:48:51.903Z,4.80
2022-12-25T18:51:18.825Z,4.85
2022-12-25T18:53:45.674Z,4.69
2022-12-25T18:56:17.911Z,4.91
2022-12-25T18:58:45.708Z,4.10
2022-12-25T19:01:18.056Z,4.92
2022-12-25T19:03:46.636Z,4.77
2022-12-25T19:06:25.151Z,4.82
2022-12-25T19:08:52.345Z,4.68
2022-12-25T19:11:20.206Z,4.66
2022-12-25T19:13:47.694Z,4.81
2022-12-25T19:16:15.065Z,4.80
2022-12-25T19:18:42.563Z,3.75
2022-12-25T19:21:09.846Z,4.85
2022-12-25T19:23:37.966Z,4.86
2022-12-25T19:26:06.135Z,3.81
2022-12-25T19:28:33.108Z,3.90
2022-12-25T19:31:01.170Z,4.79
2022-12-25T19:33:27.867Z,4.71
2022-12-25T19:35:59.961Z,4.49
2022-12-25T19:38:26.576Z,4.62
2022-12-25T19:41:03.780Z,4.66
2022-12-25T19:43:35.926Z,4.57
2022-12-25T19:46:03.563Z,4.56
2022-12-25T19:48:31.829Z,4.32
2022-12-25T19:50:58.783Z,4.45
2022-12-25T19:53:25.804Z,3.84
2022-12-25T19:55:53.601Z,4.53
2022-12-25T19:58:21.808Z,3.55
2022-12-25T20:00:59.457Z,4.37
2022-12-25T20:03:26.593Z,4.12
2022-12-25T20:05:53.343Z,3.79
2022-12-25T20:08:20.088Z,4.11
2022-12-25T20:10:46.820Z,4.07
2022-12-25T20:13:13.435Z,3.99
2022-12-25T20:15:40.140Z,4.04
2022-12-25T20:18:06.816Z,3.90
2022-12-25T20:20:33.407Z,3.87
2022-12-25T20:23:00.000Z,3.75
2022-12-25T20:25:26.647Z,3.94
2022-12-25T20:27:53.472Z,3.96
2022-12-25T20:30:20.096Z,3.92
2022-12-25T20:32:50.564Z,3.91
2022-12-25T20:35:17.544Z,3.39
2022-12-25T20:37:44.103Z,3.77
2022-12-25T20:40:12.948Z,3.80
2022-12-25T20:42:39.562Z,3.76
2022-12-25T20:45:07.639Z,3.74
2022-12-25T20:47:35.228Z,3.01
2022-12-25T20:50:02.151Z,3.58
2022-12-25T20:52:28.871Z,3.16
2022-12-25T20:54:55.467Z,3.60
2022-12-25T20:57:22.078Z,2.83
2022-12-25T20:59:48.697Z,3.48
2022-12-25T21:02:35.535Z,3.43
2022-12-25T21:05:03.877Z,3.43
2022-12-25T21:07:30.990Z,3.19
2022-12-25T21:09:57.800Z,3.46
2022-12-25T21:12:24.410Z,3.49
2022-12-25T21:14:51.104Z,3.48
2022-12-25T21:17:17.910Z,3.48
2022-12-25T21:19:44.511Z,3.35
2022-12-25T21:22:11.096Z,3.50
2022-12-25T21:24:37.690Z,3.20
2022-12-25T21:27:04.357Z,3.44
2022-12-25T21:29:31.174Z,3.35
2022-12-25T21:32:16.300Z,3.33
2022-12-25T21:34:42.867Z,3.19
2022-12-25T21:37:09.516Z,3.16
2022-12-25T21:39:36.192Z,2.68
2022-12-25T21:42:04.692Z,3.19
2022-12-25T21:44:31.380Z,3.22
2022-12-25T21:46:58.097Z,3.14
2022-12-25T21:49:43.310Z,3.14
2022-12-25T21:52:09.959Z,2.54
2022-12-25T21:54:36.832Z,3.07
2022-12-25T21:57:03.907Z,3.15
2022-12-25T21:59:30.487Z,3.01
2022-12-25T22:01:57.188Z,3.05
2022-12-25T22:04:23.961Z,2.79
2022-12-25T22:07:09.739Z,2.88
2022-12-25T22:09:37.197Z,3.02
2022-12-25T22:12:24.452Z,3.05
2022-12-25T22:14:57.909Z,2.72
2022-12-25T22:17:48.516Z,2.77
2022-12-25T22:20:19.517Z,2.82
2022-12-25T22:22:46.200Z,2.76
2022-12-25T22:25:13.763Z,2.70
2022-12-25T22:27:42.078Z,2.76
2022-12-25T22:30:12.799Z,2.43
2022-12-25T22:32:40.049Z,2.90
2022-12-25T22:35:07.629Z,2.17
2022-12-25T22:37:35.919Z,2.31
2022-12-25T22:40:04.139Z,2.70
2022-12-25T22:42:31.104Z,1.33
2022-12-25T22:44:57.756Z,1.82
2022-12-25T22:47:24.432Z,2.12
2022-12-25T22:49:51.160Z,2.31
2022-12-25T22:52:17.901Z,1.80
2022-12-25T22:54:44.538Z,2.32
2022-12-25T22:57:11.089Z,2.28
2022-12-25T22:59:37.826Z,2.21
2022-12-25T23:02:04.563Z,2.27
2022-12-25T23:04:31.280Z,2.32
2022-12-25T23:06:58.281Z,2.31
2022-12-25T23:09:27.862Z,2.34
2022-12-25T23:11:59.349Z,2.32
2022-12-25T23:14:39.012Z,2.40
2022-12-25T23:17:30.362Z,2.31
2022-12-25T23:20:17.639Z,2.33
2022-12-25T23:23:03.546Z,2.27
2022-12-25T23:25:48.849Z,1.90
2022-12-25T23:28:35.649Z,1.90
2022-12-25T23:31:02.327Z,2.40
2022-12-25T23:33:29.013Z,2.38
2022-12-25T23:35:55.607Z,2.33
2022-12-25T23:38:22.275Z,1.95
2022-12-25T23:40:48.837Z,2.52
2022-12-25T23:43:15.470Z,2.49
2022-12-25T23:45:42.095Z,2.46
2022-12-25T23:48:08.687Z,2.34
2022-12-25T23:50:35.281Z,2.38
2022-12-25T23:53:01.840Z,2.18
2022-12-25T23:55:28.492Z,2.26
2022-12-25T23:57:55.086Z,2.30
